createdAt,value
2023-03-19T00:00:45.558Z,9.44
2023-03-19T00:05:55.234Z,9.55
2023-03-19T00:11:00.536Z,9.52
2023-03-19T00:16:08.886Z,9.49
2023-03-19T00:21:16.644Z,9.39
2023-03-19T00:26:22.941Z,9.42
2023-03-19T00:31:33.249Z,9.35
2023-03-19T00:36:40.669Z,9.39
2023-03-19T00:41:50.557Z,9.20
2023-03-19T00:46:59.371Z,9.14
2023-03-19T00:52:06.557Z,9.11
2023-03-19T00:57:17.023Z,9.10
2023-03-19T01:02:25.084Z,9.13
2023-03-19T01:07:30.026Z,9.10
2023-03-19T01:12:40.450Z,9.08
2023-03-19T01:17:48.576Z,8.96
2023-03-19T01:22:54.282Z,8.88
2023-03-19T01:27:59.299Z,8.81
2023-03-19T01:33:14.740Z,8.65
2023-03-19T01:38:40.583Z,8.61
2023-03-19T01:43:51.371Z,8.64
2023-03-19T01:49:16.725Z,8.76
2023-03-19T01:54:31.347Z,8.55
2023-03-19T01:59:51.926Z,8.47
2023-03-19T02:05:26.052Z,8.58
2023-03-19T02:10:36.332Z,8.51
2023-03-19T02:15:42.190Z,8.35
2023-03-19T02:20:56.843Z,8.31
2023-03-19T02:26:12.246Z,8.23
2023-03-19T02:31:20.832Z,8.21
2023-03-19T02:36:31.634Z,8.28
2023-03-19T02:41:44.654Z,8.25
2023-03-19T02:46:53.160Z,8.23
2023-03-19T02:52:00.243Z,8.24
2023-03-19T02:57:08.644Z,8.33
2023-03-19T03:02:14.244Z,8.33
2023-03-19T03:07:20.126Z,8.21
2023-03-19T03:12:27.910Z,8.17
2023-03-19T03:17:32.966Z,8.16
2023-03-19T03:22:38.209Z,8.03
2023-03-19T03:27:45.910Z,8.04
2023-03-19T03:32:52.066Z,7.97
2023-03-19T03:37:58.139Z,7.99
2023-03-19T03:43:06.927Z,8.04
2023-03-19T03:48:13.851Z,8.01
2023-03-19T03:53:20.133Z,7.86
2023-03-19T03:58:28.284Z,8.04
2023-03-19T04:03:33.369Z,7.78
2023-03-19T04:08:38.585Z,7.70
2023-03-19T04:13:47.693Z,7.75
2023-03-19T04:18:55.423Z,7.85
2023-03-19T04:24:00.844Z,7.67
2023-03-19T04:29:12.101Z,7.69
2023-03-19T04:34:18.379Z,7.68
2023-03-19T04:39:23.443Z,7.60
2023-03-19T04:44:32.746Z,7.54
2023-03-19T04:49:39.951Z,7.61
2023-03-19T04:54:45.004Z,7.58
2023-03-19T04:59:55.742Z,7.57
2023-03-19T05:05:01.895Z,7.57
2023-03-19T05:10:09.273Z,7.72
2023-03-19T05:15:18.181Z,7.76
2023-03-19T05:20:32.593Z,7.66
2023-03-19T05:25:44.127Z,7.66
2023-03-19T05:30:57.336Z,7.66
2023-03-19T05:36:09.374Z,7.66
2023-03-19T05:41:32.263Z,7.46
2023-03-19T05:46:46.752Z,7.55
2023-03-19T05:51:52.827Z,7.50
2023-03-19T05:56:58.216Z,7.67
2023-03-19T06:02:36.440Z,7.85
2023-03-19T06:07:57.075Z,8.14
2023-03-19T06:13:34.683Z,8.43
2023-03-19T06:18:48.185Z,8.40
2023-03-19T06:23:56.692Z,8.63
2023-03-19T06:29:08.317Z,8.28
2023-03-19T06:34:16.744Z,8.50
2023-03-19T06:39:23.844Z,8.74
2023-03-19T06:44:32.279Z,10.17
2023-03-19T06:49:42.918Z,10.17
2023-03-19T06:54:49.250Z,10.35
2023-03-19T06:59:55.158Z,9.53
2023-03-19T07:05:02.738Z,9.82
2023-03-19T07:10:08.903Z,10.54
2023-03-19T07:15:17.699Z,10.91
2023-03-19T07:20:25.406Z,11.47
2023-03-19T07:25:32.493Z,11.50
2023-03-19T07:30:41.160Z,11.38
2023-03-19T07:35:51.521Z,11.41
2023-03-19T07:41:02.287Z,11.97
2023-03-19T07:46:08.187Z,11.30
2023-03-19T07:51:19.154Z,11.06
2023-03-19T07:56:24.497Z,11.37
2023-03-19T08:01:29.995Z,11.22
2023-03-19T08:06:40.199Z,11.21
2023-03-19T08:11:45.611Z,11.49
2023-03-19T08:16:50.889Z,12.08
2023-03-19T08:22:00.159Z,12.44
2023-03-19T08:27:05.391Z,12.10
2023-03-19T08:32:13.395Z,12.66
2023-03-19T08:37:23.269Z,12.67
2023-03-19T08:42:29.080Z,13.07
2023-03-19T08:47:34.410Z,13.50
2023-03-19T08:52:42.162Z,13.18
2023-03-19T08:57:47.215Z,13.61
2023-03-19T09:02:52.469Z,13.41
2023-03-19T09:08:02.488Z,12.92
2023-03-19T09:13:09.586Z,14.18
2023-03-19T09:18:15.786Z,13.30
2023-03-19T09:23:25.404Z,13.31
2023-03-19T09:28:31.249Z,12.97
2023-03-19T09:33:36.743Z,13.76
2023-03-19T09:38:46.665Z,14.66
2023-03-19T09:44:05.068Z,15.12
2023-03-19T09:49:19.675Z,14.53
2023-03-19T09:54:37.141Z,15.20
2023-03-19T09:59:42.776Z,15.21
2023-03-19T10:05:00.824Z,14.80
2023-03-19T10:10:22.147Z,14.47
2023-03-19T10:15:35.224Z,13.97
2023-03-19T10:20:48.879Z,14.31
2023-03-19T10:26:00.019Z,14.59
2023-03-19T10:31:26.008Z,14.51
2023-03-19T10:36:39.122Z,14.06
2023-03-19T10:42:02.506Z,14.79
2023-03-19T10:47:20.119Z,14.45
2023-03-19T10:52:32.556Z,14.77
2023-03-19T10:57:47.183Z,14.75
2023-03-19T11:02:54.433Z,14.64
2023-03-19T11:08:01.992Z,14.49
2023-03-19T11:13:34.035Z,14.50
2023-03-19T11:18:42.558Z,15.02
2023-03-19T11:23:54.601Z,15.58
2023-03-19T11:29:08.258Z,15.12
2023-03-19T11:34:30.627Z,15.41
2023-03-19T11:39:46.046Z,14.96
2023-03-19T11:45:07.268Z,15.75
2023-03-19T11:50:29.750Z,16.29
2023-03-19T11:55:42.653Z,16.74
2023-03-19T12:00:55.168Z,16.41
2023-03-19T12:06:06.274Z,16.09
2023-03-19T12:11:28.025Z,16.77
2023-03-19T12:16:48.314Z,16.20
2023-03-19T12:22:03.419Z,16.28
2023-03-19T12:27:22.964Z,15.82
2023-03-19T12:32:56.064Z,16.16
2023-03-19T12:38:08.816Z,15.97
2023-03-19T12:43:21.094Z,15.29
2023-03-19T12:48:33.235Z,15.70
2023-03-19T12:53:46.565Z,15.41
2023-03-19T12:59:03.511Z,15.55
2023-03-19T13:04:18.094Z,15.20
2023-03-19T13:09:31.618Z,14.95
2023-03-19T13:14:48.505Z,14.89
2023-03-19T13:19:57.302Z,15.35
2023-03-19T13:25:04.697Z,15.46
2023-03-19T13:30:20.656Z,15.69
2023-03-19T13:35:41.759Z,15.40
2023-03-19T13:40:51.931Z,15.40
2023-03-19T13:46:10.036Z,15.66
2023-03-19T13:51:33.135Z,15.41
2023-03-19T13:57:07.081Z,15.27
2023-03-19T14:02:41.779Z,15.90
2023-03-19T14:07:56.417Z,15.81
2023-03-19T14:13:10.270Z,15.47
2023-03-19T14:18:24.728Z,15.43
2023-03-19T14:23:42.740Z,15.34
2023-03-19T14:28:59.276Z,15.88
2023-03-19T14:34:24.225Z,15.70
2023-03-19T14:39:35.503Z,15.57
2023-03-19T14:45:12.106Z,15.77
2023-03-19T14:50:34.730Z,15.70
2023-03-19T14:55:42.396Z,16.16
2023-03-19T15:00:53.079Z,16.27
2023-03-19T15:06:01.231Z,16.13
2023-03-19T15:11:27.561Z,15.92
2023-03-19T15:16:45.928Z,15.72
2023-03-19T15:21:52.919Z,15.60
2023-03-19T15:27:01.038Z,16.08
2023-03-19T15:32:10.310Z,15.67
2023-03-19T15:37:20.396Z,15.92
2023-03-19T15:42:30.698Z,15.90
2023-03-19T15:47:39.630Z,15.82
2023-03-19T15:52:48.114Z,15.81
2023-03-19T15:57:56.715Z,15.85
2023-03-19T16:03:02.070Z,15.78
2023-03-19T16:08:18.387Z,15.92
2023-03-19T16:13:32.668Z,16.02
2023-03-19T16:18:45.906Z,15.46
2023-03-19T16:23:57.026Z,15.92
2023-03-19T16:29:09.691Z,15.53
2023-03-19T16:34:32.557Z,15.12
2023-03-19T16:39:39.868Z,14.89
2023-03-19T16:44:50.055Z,14.77
2023-03-19T16:49:54.984Z,14.75
2023-03-19T16:55:04.837Z,14.78
2023-03-19T17:00:20.719Z,14.42
2023-03-19T17:05:26.826Z,14.49
2023-03-19T17:10:36.470Z,14.35
2023-03-19T17:15:46.482Z,14.39
2023-03-19T17:20:57.938Z,14.24
2023-03-19T17:26:07.071Z,14.09
2023-03-19T17:31:26.869Z,13.98
2023-03-19T17:36:33.426Z,13.80
2023-03-19T17:41:39.228Z,13.70
2023-03-19T17:46:52.342Z,13.80
2023-03-19T17:51:58.822Z,13.58
2023-03-19T17:57:04.234Z,13.63
2023-03-19T18:02:27.300Z,13.68
2023-03-19T18:07:32.794Z,13.79
2023-03-19T18:12:37.791Z,13.74
2023-03-19T18:17:49.114Z,13.81
2023-03-19T18:22:55.851Z,13.75
2023-03-19T18:28:01.423Z,13.65
2023-03-19T18:33:13.818Z,13.70
2023-03-19T18:38:23.800Z,13.77
2023-03-19T18:43:29.985Z,13.65
2023-03-19T18:48:38.318Z,13.71
2023-03-19T18:53:43.606Z,13.76
2023-03-19T18:58:50.016Z,13.40
2023-03-19T19:04:00.217Z,13.17
2023-03-19T19:09:06.920Z,13.03
2023-03-19T19:14:22.025Z,13.22
2023-03-19T19:19:31.505Z,13.31
2023-03-19T19:24:36.572Z,13.06
2023-03-19T19:29:41.929Z,12.76
2023-03-19T19:34:51.971Z,12.59
2023-03-19T19:39:57.989Z,12.41
2023-03-19T19:45:05.767Z,12.57
2023-03-19T19:50:22.378Z,12.99
2023-03-19T19:55:30.472Z,13.09
2023-03-19T20:00:36.641Z,13.18
2023-03-19T20:05:47.973Z,13.03
2023-03-19T20:10:53.590Z,13.14
2023-03-19T20:16:01.281Z,12.72
2023-03-19T20:21:15.166Z,12.34
2023-03-19T20:26:24.393Z,12.21
2023-03-19T20:31:33.172Z,12.20
2023-03-19T20:36:41.860Z,12.16
2023-03-19T20:41:49.916Z,12.37
2023-03-19T20:46:59.164Z,12.01
2023-03-19T20:52:09.544Z,12.00
2023-03-19T20:57:16.848Z,12.05
2023-03-19T21:02:25.458Z,12.02
2023-03-19T21:07:38.680Z,12.02
2023-03-19T21:12:45.152Z,11.93
2023-03-19T21:17:50.750Z,11.91
2023-03-19T21:23:05.250Z,12.03
2023-03-19T21:28:18.797Z,12.09
2023-03-19T21:33:27.174Z,12.04
2023-03-19T21:38:35.733Z,12.17
2023-03-19T21:43:45.666Z,12.06
2023-03-19T21:48:50.625Z,11.89
2023-03-19T21:53:58.768Z,11.68
2023-03-19T21:59:06.740Z,11.62
2023-03-19T22:04:14.146Z,11.51
2023-03-19T22:09:21.917Z,11.36
2023-03-19T22:14:29.096Z,11.10
2023-03-19T22:19:34.091Z,11.24
2023-03-19T22:24:44.428Z,11.19
2023-03-19T22:29:49.865Z,11.11
2023-03-19T22:34:55.168Z,11.09
2023-03-19T22:40:04.269Z,10.99
2023-03-19T22:45:17.129Z,10.95
2023-03-19T22:50:25.862Z,10.83
2023-03-19T22:55:35.894Z,10.66
2023-03-19T23:00:42.053Z,10.39
2023-03-19T23:05:50.994Z,10.18
2023-03-19T23:10:59.606Z,10.21
2023-03-19T23:16:10.384Z,10.07
2023-03-19T23:21:18.535Z,10.03
2023-03-19T23:26:32.036Z,10.08
2023-03-19T23:31:38.720Z,10.00
2023-03-19T23:36:44.738Z,10.16
2023-03-19T23:41:55.233Z,10.10
2023-03-19T23:47:03.837Z,9.88
2023-03-19T23:52:09.032Z,9.96
2023-03-19T23:57:21.126Z,10.00
